Time;durP1;ratioP1;P1;durP2;ratioP2;P2;SDS_P1;SDS_P2;PMS_P1;PMS_P2;Temp;Humidity;BMP_temperature;BMP_pressure;BME280_temperature;BME280_humidity;BME280_pressure;Samples;Min_cycle;Max_cycle;Signal;HPM_P1;HPM_P2
2021/01/18 00:00:29;;;;;;;22.53;13.3;;;5.5;99.9;;;;;;;;;
2021/01/18 00:01:02;;;;;;;22.53;13.3;;;5.5;99.9;;;;;;;;;
2021/01/18 00:02:02;;;;;;;24.83;13.27;;;5.5;99.9;;;;;;;;;
2021/01/18 00:02:42;;;;;;;25.73;14.5;;;5.5;99.9;;;;;;;;;
2021/01/18 00:03:02;;;;;;;25.73;14.5;;;5.5;99.9;;;;;;;;;
2021/01/18 00:03:13;;;;;;;25.73;14.5;;;5.5;99.9;;;;;;;;;
2021/01/18 00:04:02;;;;;;;23.17;14.73;;;5.5;99.9;;;;;;;;;
2021/01/18 00:04:14;;;;;;;23.17;14.73;;;5.5;99.9;;;;;;;;;
2021/01/18 00:04:55;;;;;;;29.1;14.73;;;5.5;99.9;;;;;;;;;
2021/01/18 00:05:02;;;;;;;29.1;14.73;;;5.5;99.9;;;;;;;;;
2021/01/18 00:05:15;;;;;;;29.1;14.73;;;5.5;99.9;;;;;;;;;
2021/01/18 00:05:26;;;;;;;29.1;14.73;;;5.5;99.9;;;;;;;;;
2021/01/18 00:06:02;;;;;;;28.43;15.23;;;5.5;99.9;;;;;;;;;
2021/01/18 00:06:17;;;;;;;28.43;15.23;;;5.5;99.9;;;;;;;;;
2021/01/18 00:06:27;;;;;;;22.93;14.9;;;5.5;99.9;;;;;;;;;
2021/01/18 00:07:02;;;;;;;22.93;14.9;;;5.5;99.9;;;;;;;;;
2021/01/18 00:07:08;;;;;;;22.93;14.9;;;5.5;99.9;;;;;;;;;
2021/01/18 00:07:13;;;;;;;22.93;14.9;;;5.5;99.9;;;;;;;;;
2021/01/18 00:07:28;;;;;;;26.2;14.17;;;5.5;99.9;;;;;;;;;
2021/01/18 00:07:39;;;;;;;26.2;14.17;;;5.5;99.9;;;;;;;;;
2021/01/18 00:08:02;;;;;;;26.2;14.17;;;5.5;99.9;;;;;;;;;
2021/01/18 00:08:15;;;;;;;26.2;14.17;;;5.5;99.9;;;;;;;;;
2021/01/18 00:08:30;;;;;;;27.23;15.1;;;5.5;99.9;;;;;;;;;
2021/01/18 00:08:40;;;;;;;27.23;15.1;;;5.5;99.9;;;;;;;;;
2021/01/18 00:09:02;;;;;;;27.23;15.1;;;5.5;99.9;;;;;;;;;
2021/01/18 00:09:16;;;;;;;27.23;15.1;;;5.5;99.9;;;;;;;;;
2021/01/18 00:09:26;;;;;;;27.23;15.1;;;5.5;99.9;;;;;;;;;
2021/01/18 00:09:42;;;;;;;23.43;14.07;;;5.5;99.9;;;;;;;;;
2021/01/18 00:09:57;;;;;;;23.43;14.07;;;5.5;99.9;;;;;;;;;
2021/01/18 00:10:02;;;;;;;23.43;14.07;;;5.5;99.9;;;;;;;;;
2021/01/18 00:10:12;;;;;;;23.43;14.07;;;5.5;99.9;;;;;;;;;
2021/01/18 00:10:28;;;;;;;23.43;14.07;;;5.5;99.9;;;;;;;;;
2021/01/18 00:10:43;;;;;;;29.57;15.3;;;5.5;99.9;;;;;;;;;
2021/01/18 00:10:53;;;;;;;29.57;15.3;;;5.5;99.9;;;;;;;;;
2021/01/18 00:11:02;;;;;;;29.57;15.3;;;5.5;99.9;;;;;;;;;
2021/01/18 00:11:14;;;;;;;29.57;15.3;;;5.5;99.9;;;;;;;;;
2021/01/18 00:11:29;;;;;;;22.13;15.07;;;5.5;99.9;;;;;;;;;
2021/01/18 00:11:39;;;;;;;22.13;15.07;;;5.5;99.9;;;;;;;;;
2021/01/18 00:11:55;;;;;;;22.13;15.07;;;5.5;99.9;;;;;;;;;
2021/01/18 00:12:02;;;;;;;22.13;15.07;;;5.5;99.9;;;;;;;;;
2021/01/18 00:12:10;;;;;;;22.13;15.07;;;5.5;99.9;;;;;;;;;
2021/01/18 00:12:15;;;;;;;22.13;15.07;;;5.5;99.9;;;;;;;;;
2021/01/18 00:12:25;;;;;;;22.13;15.07;;;5.5;99.9;;;;;;;;;
2021/01/18 00:12:41;;;;;;;24.37;14.87;;;5.5;99.9;;;;;;;;;
2021/01/18 00:12:56;;;;;;;24.37;14.87;;;5.5;99.9;;;;;;;;;
2021/01/18 00:13:02;;;;;;;24.37;14.87;;;5.5;99.9;;;;;;;;;
2021/01/18 00:13:06;;;;;;;24.37;14.87;;;5.5;99.9;;;;;;;;;
2021/01/18 00:13:17;;;;;;;24.37;14.87;;;5.5;99.9;;;;;;;;;
2021/01/18 00:13:27;;;;;;;24.37;14.87;;;5.5;99.9;;;;;;;;;
2021/01/18 00:13:43;;;;;;;24.03;14.83;;;5.5;99.9;;;;;;;;;
2021/01/18 00:13:58;;;;;;;24.03;14.83;;;5.5;99.9;;;;;;;;;
2021/01/18 00:14:02;;;;;;;24.03;14.83;;;5.5;99.9;;;;;;;;;
2021/01/18 00:14:08;;;;;;;24.03;14.83;;;5.5;99.9;;;;;;;;;
2021/01/18 00:14:13;;;;;;;24.03;14.83;;;5.5;99.9;;;;;;;;;
2021/01/18 00:14:28;;;;;;;24.03;14.83;;;5.5;99.9;;;;;;;;;
2021/01/18 00:14:39;;;;;;;25.1;15.23;;;5.4;99.9;;;;;;;;;
2021/01/18 00:14:54;;;;;;;25.1;15.23;;;5.4;99.9;;;;;;;;;
2021/01/18 00:15:02;;;;;;;25.1;15.23;;;5.4;99.9;;;;;;;;;
2021/01/18 00:15:09;;;;;;;25.1;15.23;;;5.4;99.9;;;;;;;;;
2021/01/18 00:15:14;;;;;;;25.1;15.23;;;5.4;99.9;;;;;;;;;
2021/01/18 00:15:31;;;;;;;26.83;15.67;;;5.4;99.9;;;;;;;;;
2021/01/18 00:15:40;;;;;;;26.83;15.67;;;5.4;99.9;;;;;;;;;
2021/01/18 00:15:55;;;;;;;26.83;15.67;;;5.4;99.9;;;;;;;;;
2021/01/18 00:16:02;;;;;;;26.83;15.67;;;5.4;99.9;;;;;;;;;
2021/01/18 00:16:11;;;;;;;26.83;15.67;;;5.4;99.9;;;;;;;;;
2021/01/18 00:16:16;;;;;;;26.83;15.67;;;5.4;99.9;;;;;;;;;
2021/01/18 00:16:26;;;;;;;26.83;15.67;;;5.4;99.9;;;;;;;;;
2021/01/18 00:16:41;;;;;;;25.53;16.5;;;5.4;99.9;;;;;;;;;
2021/01/18 00:16:52;;;;;;;25.53;16.5;;;5.4;99.9;;;;;;;;;
2021/01/18 00:17:02;;;;;;;25.53;16.5;;;5.4;99.9;;;;;;;;;
2021/01/18 00:17:07;;;;;;;25.53;16.5;;;5.4;99.9;;;;;;;;;
2021/01/18 00:17:17;;;;;;;25.53;16.5;;;5.4;99.9;;;;;;;;;
2021/01/18 00:17:27;;;;;;;25.53;16.5;;;5.4;99.9;;;;;;;;;
2021/01/18 00:17:43;;;;;;;23.7;15.43;;;5.4;99.9;;;;;;;;;
2021/01/18 00:17:53;;;;;;;23.7;15.43;;;5.4;99.9;;;;;;;;;
2021/01/18 00:18:02;;;;;;;23.7;15.43;;;5.4;99.9;;;;;;;;;
2021/01/18 00:18:08;;;;;;;23.7;15.43;;;5.4;99.9;;;;;;;;;
2021/01/18 00:18:14;;;;;;;23.7;15.43;;;5.4;99.9;;;;;;;;;
2021/01/18 00:18:29;;;;;;;23.7;15.43;;;5.4;99.9;;;;;;;;;
2021/01/18 00:18:39;;;;;;;27.3;14.7;;;5.3;99.9;;;;;;;;;
2021/01/18 00:18:55;;;;;;;27.3;14.7;;;5.3;99.9;;;;;;;;;
2021/01/18 00:19:01;;;;;;;27.3;14.7;;;5.3;99.9;;;;;;;;;
2021/01/18 00:19:05;;;;;;;27.3;14.7;;;5.3;99.9;;;;;;;;;
2021/01/18 00:19:15;;;;;;;27.3;14.7;;;5.3;99.9;;;;;;;;;
2021/01/18 00:19:30;;;;;;;27.3;14.7;;;5.3;99.9;;;;;;;;;
2021/01/18 00:19:41;;;;;;;27.97;15.3;;;5.3;99.9;;;;;;;;;
2021/01/18 00:19:56;;;;;;;27.97;15.3;;;5.3;99.9;;;;;;;;;
2021/01/18 00:20:02;;;;;;;27.97;15.3;;;5.3;99.9;;;;;;;;;
2021/01/18 00:20:06;;;;;;;27.97;15.3;;;5.3;99.9;;;;;;;;;
2021/01/18 00:20:16;;;;;;;27.97;15.3;;;5.3;99.9;;;;;;;;;
2021/01/18 00:20:27;;;;;;;27.97;15.3;;;5.3;99.9;;;;;;;;;
2021/01/18 00:20:42;;;;;;;28.9;16.03;;;5.3;99.9;;;;;;;;;
2021/01/18 00:20:54;;;;;;;28.9;16.03;;;5.3;99.9;;;;;;;;;
2021/01/18 00:21:02;;;;;;;28.9;16.03;;;5.3;99.9;;;;;;;;;
2021/01/18 00:21:08;;;;;;;28.9;16.03;;;5.3;99.9;;;;;;;;;
2021/01/18 00:21:13;;;;;;;28.9;16.03;;;5.3;99.9;;;;;;;;;
2021/01/18 00:21:28;;;;;;;28.9;16.03;;;5.3;99.9;;;;;;;;;
2021/01/18 00:21:43;;;;;;;24;14.8;;;5.2;99.9;;;;;;;;;
2021/01/18 00:21:54;;;;;;;24;14.8;;;5.2;99.9;;;;;;;;;
2021/01/18 00:22:01;;;;;;;24;14.8;;;5.2;99.9;;;;;;;;;
2021/01/18 00:22:09;;;;;;;24;14.8;;;5.2;99.9;;;;;;;;;
2021/01/18 00:22:14;;;;;;;24;14.8;;;5.2;99.9;;;;;;;;;
2021/01/18 00:22:30;;;;;;;24;14.8;;;5.2;99.9;;;;;;;;;
2021/01/18 00:22:40;;;;;;;27.33;15.9;;;5.3;99.9;;;;;;;;;
2021/01/18 00:22:55;;;;;;;27.33;15.9;;;5.3;99.9;;;;;;;;;
2021/01/18 00:23:03;;;;;;;27.33;15.9;;;5.3;99.9;;;;;;;;;
2021/01/18 00:23:05;;;;;;;27.33;15.9;;;5.3;99.9;;;;;;;;;
2021/01/18 00:23:16;;;;;;;27.33;15.9;;;5.3;99.9;;;;;;;;;
2021/01/18 00:23:26;;;;;;;27.33;15.9;;;5.3;99.9;;;;;;;;;
2021/01/18 00:23:41;;;;;;;27.53;16.43;;;5.3;99.9;;;;;;;;;
2021/01/18 00:23:57;;;;;;;27.53;16.43;;;5.3;99.9;;;;;;;;;
2021/01/18 00:24:01;;;;;;;27.53;16.43;;;5.3;99.9;;;;;;;;;
2021/01/18 00:24:07;;;;;;;27.53;16.43;;;5.3;99.9;;;;;;;;;
2021/01/18 00:24:12;;;;;;;27.53;16.43;;;5.3;99.9;;;;;;;;;
2021/01/18 00:24:27;;;;;;;27.53;16.43;;;5.3;99.9;;;;;;;;;
2021/01/18 00:24:43;;;;;;;28.73;15.43;;;5.3;99.9;;;;;;;;;
2021/01/18 00:24:53;;;;;;;28.73;15.43;;;5.3;99.9;;;;;;;;;
2021/01/18 00:25:02;;;;;;;28.73;15.43;;;5.3;99.9;;;;;;;;;
2021/01/18 00:25:08;;;;;;;28.73;15.43;;;5.3;99.9;;;;;;;;;
2021/01/18 00:25:13;;;;;;;28.73;15.43;;;5.3;99.9;;;;;;;;;
2021/01/18 00:25:29;;;;;;;28.73;15.43;;;5.3;99.9;;;;;;;;;
2021/01/18 00:25:39;;;;;;;23.83;15.23;;;5.3;99.9;;;;;;;;;
2021/01/18 00:25:54;;;;;;;23.83;15.23;;;5.3;99.9;;;;;;;;;
2021/01/18 00:26:02;;;;;;;23.83;15.23;;;5.3;99.9;;;;;;;;;
2021/01/18 00:26:10;;;;;;;23.83;15.23;;;5.3;99.9;;;;;;;;;
2021/01/18 00:26:15;;;;;;;23.83;15.23;;;5.3;99.9;;;;;;;;;
2021/01/18 00:26:25;;;;;;;23.83;15.23;;;5.3;99.9;;;;;;;;;
2021/01/18 00:26:41;;;;;;;25.2;15.7;;;5.2;99.9;;;;;;;;;
2021/01/18 00:26:56;;;;;;;25.2;15.7;;;5.2;99.9;;;;;;;;;
2021/01/18 00:27:01;;;;;;;25.2;15.7;;;5.2;99.9;;;;;;;;;
2021/01/18 00:27:06;;;;;;;25.2;15.7;;;5.2;99.9;;;;;;;;;
2021/01/18 00:27:16;;;;;;;25.2;15.7;;;5.2;99.9;;;;;;;;;
2021/01/18 00:27:32;;;;;;;25.2;15.7;;;5.2;99.9;;;;;;;;;
2021/01/18 00:27:42;;;;;;;27.57;16.1;;;5.2;99.9;;;;;;;;;
2021/01/18 00:27:52;;;;;;;27.57;16.1;;;5.2;99.9;;;;;;;;;
2021/01/18 00:28:02;;;;;;;27.57;16.1;;;5.2;99.9;;;;;;;;;
2021/01/18 00:28:07;;;;;;;27.57;16.1;;;5.2;99.9;;;;;;;;;
2021/01/18 00:28:13;;;;;;;27.57;16.1;;;5.2;99.9;;;;;;;;;
2021/01/18 00:28:28;;;;;;;27.57;16.1;;;5.2;99.9;;;;;;;;;
2021/01/18 00:28:39;;;;;;;25.57;15.5;;;5.2;99.9;;;;;;;;;
2021/01/18 00:28:59;;;;;;;25.57;15.5;;;5.2;99.9;;;;;;;;;
2021/01/18 00:29:01;;;;;;;25.57;15.5;;;5.2;99.9;;;;;;;;;
2021/01/18 00:29:09;;;;;;;25.57;15.5;;;5.2;99.9;;;;;;;;;
2021/01/18 00:29:14;;;;;;;25.57;15.5;;;5.2;99.9;;;;;;;;;
2021/01/18 00:29:29;;;;;;;25.57;15.5;;;5.2;99.9;;;;;;;;;
2021/01/18 00:29:45;;;;;;;25.27;15.43;;;5.2;99.9;;;;;;;;;
2021/01/18 00:29:55;;;;;;;25.27;15.43;;;5.2;99.9;;;;;;;;;
2021/01/18 00:30:02;;;;;;;25.27;15.43;;;5.2;99.9;;;;;;;;;
2021/01/18 00:30:05;;;;;;;25.27;15.43;;;5.2;99.9;;;;;;;;;
2021/01/18 00:30:15;;;;;;;25.27;15.43;;;5.2;99.9;;;;;;;;;
2021/01/18 00:30:26;;;;;;;25.27;15.43;;;5.2;99.9;;;;;;;;;
2021/01/18 00:30:41;;;;;;;22.6;14.07;;;5.2;99.9;;;;;;;;;
2021/01/18 00:30:51;;;;;;;22.6;14.07;;;5.2;99.9;;;;;;;;;
2021/01/18 00:31:02;;;;;;;22.6;14.07;;;5.2;99.9;;;;;;;;;
2021/01/18 00:31:12;;;;;;;22.6;14.07;;;5.2;99.9;;;;;;;;;
2021/01/18 00:31:12;;;;;;;22.6;14.07;;;5.2;99.9;;;;;;;;;
2021/01/18 00:31:27;;;;;;;22.6;14.07;;;5.2;99.9;;;;;;;;;
2021/01/18 00:31:43;;;;;;;24.77;16.17;;;5.2;99.9;;;;;;;;;
2021/01/18 00:31:58;;;;;;;24.77;16.17;;;5.2;99.9;;;;;;;;;
2021/01/18 00:32:02;;;;;;;24.77;16.17;;;5.2;99.9;;;;;;;;;
2021/01/18 00:32:08;;;;;;;24.77;16.17;;;5.2;99.9;;;;;;;;;
2021/01/18 00:32:18;;;;;;;24.77;16.17;;;5.2;99.9;;;;;;;;;
2021/01/18 00:32:29;;;;;;;24.77;16.17;;;5.2;99.9;;;;;;;;;
2021/01/18 00:32:39;;;;;;;23.27;15.67;;;5.2;99.9;;;;;;;;;
2021/01/18 00:32:54;;;;;;;23.27;15.67;;;5.2;99.9;;;;;;;;;
2021/01/18 00:33:02;;;;;;;23.27;15.67;;;5.2;99.9;;;;;;;;;
2021/01/18 00:33:04;;;;;;;23.27;15.67;;;5.2;99.9;;;;;;;;;
2021/01/18 00:33:15;;;;;;;23.27;15.67;;;5.2;99.9;;;;;;;;;
2021/01/18 00:33:25;;;;;;;23.27;15.67;;;5.2;99.9;;;;;;;;;
2021/01/18 00:33:40;;;;;;;26.33;16.83;;;5.1;99.9;;;;;;;;;
2021/01/18 00:33:56;;;;;;;26.33;16.83;;;5.1;99.9;;;;;;;;;
2021/01/18 00:34:01;;;;;;;26.33;16.83;;;5.1;99.9;;;;;;;;;
2021/01/18 00:34:11;;;;;;;26.33;16.83;;;5.1;99.9;;;;;;;;;
2021/01/18 00:34:16;;;;;;;26.33;16.83;;;5.1;99.9;;;;;;;;;
2021/01/18 00:34:31;;;;;;;26.33;16.83;;;5.1;99.9;;;;;;;;;
2021/01/18 00:34:42;;;;;;;26.23;15;;;5.1;99.9;;;;;;;;;
2021/01/18 00:34:52;;;;;;;26.23;15;;;5.1;99.9;;;;;;;;;
2021/01/18 00:35:02;;;;;;;26.23;15;;;5.1;99.9;;;;;;;;;
2021/01/18 00:35:07;;;;;;;26.23;15;;;5.1;99.9;;;;;;;;;
2021/01/18 00:35:18;;;;;;;26.23;15;;;5.1;99.9;;;;;;;;;
2021/01/18 00:35:28;;;;;;;26.23;15;;;5.1;99.9;;;;;;;;;
2021/01/18 00:35:38;;;;;;;25.9;15.27;;;5.2;99.9;;;;;;;;;
2021/01/18 00:35:53;;;;;;;25.9;15.27;;;5.2;99.9;;;;;;;;;
2021/01/18 00:36:02;;;;;;;25.9;15.27;;;5.2;99.9;;;;;;;;;
2021/01/18 00:36:09;;;;;;;25.9;15.27;;;5.2;99.9;;;;;;;;;
2021/01/18 00:36:14;;;;;;;25.9;15.27;;;5.2;99.9;;;;;;;;;
2021/01/18 00:36:29;;;;;;;25.9;15.27;;;5.2;99.9;;;;;;;;;
2021/01/18 00:36:45;;;;;;;23.53;13.7;;;5.1;99.9;;;;;;;;;
2021/01/18 00:36:55;;;;;;;23.53;13.7;;;5.1;99.9;;;;;;;;;
2021/01/18 00:37:02;;;;;;;23.53;13.7;;;5.1;99.9;;;;;;;;;
2021/01/18 00:37:05;;;;;;;23.53;13.7;;;5.1;99.9;;;;;;;;;
2021/01/18 00:37:15;;;;;;;23.53;13.7;;;5.1;99.9;;;;;;;;;
2021/01/18 00:37:31;;;;;;;23.53;13.7;;;5.1;99.9;;;;;;;;;
2021/01/18 00:37:41;;;;;;;25.73;15.3;;;5.2;99.9;;;;;;;;;
2021/01/18 00:37:51;;;;;;;25.73;15.3;;;5.2;99.9;;;;;;;;;
2021/01/18 00:38:02;;;;;;;25.73;15.3;;;5.2;99.9;;;;;;;;;
2021/01/18 00:38:06;;;;;;;25.73;15.3;;;5.2;99.9;;;;;;;;;
2021/01/18 00:38:17;;;;;;;25.73;15.3;;;5.2;99.9;;;;;;;;;
2021/01/18 00:38:27;;;;;;;25.73;15.3;;;5.2;99.9;;;;;;;;;
2021/01/18 00:38:42;;;;;;;24.37;14.73;;;5.2;99.9;;;;;;;;;
2021/01/18 00:38:58;;;;;;;24.37;14.73;;;5.2;99.9;;;;;;;;;
2021/01/18 00:39:02;;;;;;;24.37;14.73;;;5.2;99.9;;;;;;;;;
2021/01/18 00:39:08;;;;;;;24.37;14.73;;;5.2;99.9;;;;;;;;;
2021/01/18 00:39:13;;;;;;;24.37;14.73;;;5.2;99.9;;;;;;;;;
2021/01/18 00:39:28;;;;;;;24.37;14.73;;;5.2;99.9;;;;;;;;;
2021/01/18 00:39:44;;;;;;;24.5;15.27;;;5.3;99.9;;;;;;;;;
2021/01/18 00:39:54;;;;;;;24.5;15.27;;;5.3;99.9;;;;;;;;;
2021/01/18 00:40:02;;;;;;;24.5;15.27;;;5.3;99.9;;;;;;;;;
2021/01/18 00:40:04;;;;;;;24.5;15.27;;;5.3;99.9;;;;;;;;;
2021/01/18 00:40:15;;;;;;;24.5;15.27;;;5.3;99.9;;;;;;;;;
2021/01/18 00:40:30;;;;;;;24.5;15.27;;;5.3;99.9;;;;;;;;;
2021/01/18 00:40:40;;;;;;;29.93;15.57;;;5.3;99.9;;;;;;;;;
2021/01/18 00:40:55;;;;;;;29.93;15.57;;;5.3;99.9;;;;;;;;;
2021/01/18 00:41:02;;;;;;;29.93;15.57;;;5.3;99.9;;;;;;;;;
2021/01/18 00:41:11;;;;;;;29.93;15.57;;;5.3;99.9;;;;;;;;;
2021/01/18 00:41:16;;;;;;;29.93;15.57;;;5.3;99.9;;;;;;;;;
2021/01/18 00:41:26;;;;;;;29.93;15.57;;;5.3;99.9;;;;;;;;;
2021/01/18 00:41:42;;;;;;;29.73;16.17;;;5.3;99.9;;;;;;;;;
2021/01/18 00:41:57;;;;;;;29.73;16.17;;;5.3;99.9;;;;;;;;;
2021/01/18 00:42:02;;;;;;;29.73;16.17;;;5.3;99.9;;;;;;;;;
2021/01/18 00:42:07;;;;;;;29.73;16.17;;;5.3;99.9;;;;;;;;;
2021/01/18 00:42:18;;;;;;;29.73;16.17;;;5.3;99.9;;;;;;;;;
2021/01/18 00:42:28;;;;;;;29.73;16.17;;;5.3;99.9;;;;;;;;;
2021/01/18 00:42:43;;;;;;;22.87;15.17;;;5.3;99.9;;;;;;;;;
2021/01/18 00:42:53;;;;;;;22.87;15.17;;;5.3;99.9;;;;;;;;;
2021/01/18 00:43:02;;;;;;;22.87;15.17;;;5.3;99.9;;;;;;;;;
2021/01/18 00:43:09;;;;;;;22.87;15.17;;;5.3;99.9;;;;;;;;;
2021/01/18 00:43:14;;;;;;;22.87;15.17;;;5.3;99.9;;;;;;;;;
2021/01/18 00:43:29;;;;;;;22.87;15.17;;;5.3;99.9;;;;;;;;;
2021/01/18 00:43:39;;;;;;;27.6;15.57;;;5.3;99.9;;;;;;;;;
2021/01/18 00:43:55;;;;;;;27.6;15.57;;;5.3;99.9;;;;;;;;;
2021/01/18 00:44:01;;;;;;;27.6;15.57;;;5.3;99.9;;;;;;;;;
2021/01/18 00:44:10;;;;;;;27.6;15.57;;;5.3;99.9;;;;;;;;;
2021/01/18 00:44:15;;;;;;;27.6;15.57;;;5.3;99.9;;;;;;;;;
2021/01/18 00:44:30;;;;;;;27.6;15.57;;;5.3;99.9;;;;;;;;;
2021/01/18 00:44:41;;;;;;;26.33;14.77;;;5.2;99.9;;;;;;;;;
2021/01/18 00:44:56;;;;;;;26.33;14.77;;;5.2;99.9;;;;;;;;;
2021/01/18 00:45:02;;;;;;;26.33;14.77;;;5.2;99.9;;;;;;;;;
2021/01/18 00:45:06;;;;;;;26.33;14.77;;;5.2;99.9;;;;;;;;;
2021/01/18 00:45:17;;;;;;;26.33;14.77;;;5.2;99.9;;;;;;;;;
2021/01/18 00:45:27;;;;;;;26.33;14.77;;;5.2;99.9;;;;;;;;;
2021/01/18 00:45:42;;;;;;;26.9;15.47;;;5.3;99.9;;;;;;;;;
2021/01/18 00:45:52;;;;;;;26.9;15.47;;;5.3;99.9;;;;;;;;;
2021/01/18 00:46:01;;;;;;;26.9;15.47;;;5.3;99.9;;;;;;;;;
2021/01/18 00:46:08;;;;;;;26.9;15.47;;;5.3;99.9;;;;;;;;;
2021/01/18 00:46:13;;;;;;;26.9;15.47;;;5.3;99.9;;;;;;;;;
2021/01/18 00:46:28;;;;;;;26.9;15.47;;;5.3;99.9;;;;;;;;;
2021/01/18 00:46:44;;;;;;;24.8;14.67;;;5.3;99.9;;;;;;;;;
2021/01/18 00:46:54;;;;;;;24.8;14.67;;;5.3;99.9;;;;;;;;;
2021/01/18 00:47:02;;;;;;;24.8;14.67;;;5.3;99.9;;;;;;;;;
2021/01/18 00:47:09;;;;;;;24.8;14.67;;;5.3;99.9;;;;;;;;;
2021/01/18 00:47:14;;;;;;;24.8;14.67;;;5.3;99.9;;;;;;;;;
2021/01/18 00:47:30;;;;;;;24.8;14.67;;;5.3;99.9;;;;;;;;;
2021/01/18 00:47:40;;;;;;;29.07;16.4;;;5.2;99.9;;;;;;;;;
2021/01/18 00:47:55;;;;;;;29.07;16.4;;;5.2;99.9;;;;;;;;;
2021/01/18 00:48:02;;;;;;;29.07;16.4;;;5.2;99.9;;;;;;;;;
2021/01/18 00:48:05;;;;;;;29.07;16.4;;;5.2;99.9;;;;;;;;;
2021/01/18 00:48:16;;;;;;;29.07;16.4;;;5.2;99.9;;;;;;;;;
2021/01/18 00:48:26;;;;;;;29.07;16.4;;;5.2;99.9;;;;;;;;;
2021/01/18 00:48:41;;;;;;;31.37;16.07;;;5.2;99.9;;;;;;;;;
2021/01/18 00:48:57;;;;;;;31.37;16.07;;;5.2;99.9;;;;;;;;;
2021/01/18 00:49:01;;;;;;;31.37;16.07;;;5.2;99.9;;;;;;;;;
2021/01/18 00:49:07;;;;;;;31.37;16.07;;;5.2;99.9;;;;;;;;;
2021/01/18 00:49:12;;;;;;;31.37;16.07;;;5.2;99.9;;;;;;;;;
2021/01/18 00:49:27;;;;;;;31.37;16.07;;;5.2;99.9;;;;;;;;;
2021/01/18 00:49:43;;;;;;;27.87;16.13;;;5.2;99.9;;;;;;;;;
2021/01/18 00:49:53;;;;;;;27.87;16.13;;;5.2;99.9;;;;;;;;;
2021/01/18 00:50:02;;;;;;;27.87;16.13;;;5.2;99.9;;;;;;;;;
2021/01/18 00:50:08;;;;;;;27.87;16.13;;;5.2;99.9;;;;;;;;;
2021/01/18 00:50:14;;;;;;;27.87;16.13;;;5.2;99.9;;;;;;;;;
2021/01/18 00:50:30;;;;;;;27.87;16.13;;;5.2;99.9;;;;;;;;;
2021/01/18 00:50:39;;;;;;;27.87;16.13;;;5.2;99.9;;;;;;;;;
2021/01/18 00:50:55;;;;;;;20.53;14.3;;;5.3;99.9;;;;;;;;;
2021/01/18 00:51:02;;;;;;;20.53;14.3;;;5.3;99.9;;;;;;;;;
2021/01/18 00:51:10;;;;;;;20.53;14.3;;;5.3;99.9;;;;;;;;;
2021/01/18 00:51:15;;;;;;;20.53;14.3;;;5.3;99.9;;;;;;;;;
2021/01/18 00:51:25;;;;;;;20.53;14.3;;;5.3;99.9;;;;;;;;;
2021/01/18 00:51:41;;;;;;;28.7;16.07;;;5.3;99.9;;;;;;;;;
2021/01/18 00:51:56;;;;;;;28.7;16.07;;;5.3;99.9;;;;;;;;;
2021/01/18 00:52:02;;;;;;;28.7;16.07;;;5.3;99.9;;;;;;;;;
2021/01/18 00:52:06;;;;;;;28.7;16.07;;;5.3;99.9;;;;;;;;;
2021/01/18 00:52:16;;;;;;;28.7;16.07;;;5.3;99.9;;;;;;;;;
2021/01/18 00:52:27;;;;;;;28.7;16.07;;;5.3;99.9;;;;;;;;;
2021/01/18 00:52:42;;;;;;;26.87;15.23;;;5.3;99.9;;;;;;;;;
2021/01/18 00:52:52;;;;;;;26.87;15.23;;;5.3;99.9;;;;;;;;;
2021/01/18 00:53:02;;;;;;;26.87;15.23;;;5.3;99.9;;;;;;;;;
2021/01/18 00:53:10;;;;;;;26.87;15.23;;;5.3;99.9;;;;;;;;;
2021/01/18 00:53:13;;;;;;;26.87;15.23;;;5.3;99.9;;;;;;;;;
2021/01/18 00:53:28;;;;;;;26.87;15.23;;;5.3;99.9;;;;;;;;;
2021/01/18 00:53:38;;;;;;;26.87;15.23;;;5.3;99.9;;;;;;;;;
2021/01/18 00:53:54;;;;;;;24.83;16.37;;;5.3;99.9;;;;;;;;;
2021/01/18 00:54:02;;;;;;;24.83;16.37;;;5.3;99.9;;;;;;;;;
2021/01/18 00:54:09;;;;;;;24.83;16.37;;;5.3;99.9;;;;;;;;;
2021/01/18 00:54:14;;;;;;;24.83;16.37;;;5.3;99.9;;;;;;;;;
2021/01/18 00:54:30;;;;;;;24.83;16.37;;;5.3;99.9;;;;;;;;;
2021/01/18 00:54:40;;;;;;;24.83;16.37;;;5.3;99.9;;;;;;;;;
2021/01/18 00:54:55;;;;;;;28.43;16.23;;;5.3;99.9;;;;;;;;;
2021/01/18 00:55:02;;;;;;;28.43;16.23;;;5.3;99.9;;;;;;;;;
2021/01/18 00:55:05;;;;;;;28.43;16.23;;;5.3;99.9;;;;;;;;;
2021/01/18 00:55:16;;;;;;;28.43;16.23;;;5.3;99.9;;;;;;;;;
2021/01/18 00:55:26;;;;;;;28.43;16.23;;;5.3;99.9;;;;;;;;;
2021/01/18 00:55:41;;;;;;;28.43;16.23;;;5.3;99.9;;;;;;;;;
2021/01/18 00:55:51;;;;;;;26.4;15.03;;;5.3;99.9;;;;;;;;;
2021/01/18 00:56:02;;;;;;;26.4;15.03;;;5.3;99.9;;;;;;;;;
2021/01/18 00:56:07;;;;;;;26.4;15.03;;;5.3;99.9;;;;;;;;;
2021/01/18 00:56:17;;;;;;;26.4;15.03;;;5.3;99.9;;;;;;;;;
2021/01/18 00:56:27;;;;;;;26.4;15.03;;;5.3;99.9;;;;;;;;;
2021/01/18 00:56:43;;;;;;;27.17;15.33;;;5.3;99.9;;;;;;;;;
2021/01/18 00:56:53;;;;;;;27.17;15.33;;;5.3;99.9;;;;;;;;;
2021/01/18 00:57:02;;;;;;;27.17;15.33;;;5.3;99.9;;;;;;;;;
2021/01/18 00:57:08;;;;;;;27.17;15.33;;;5.3;99.9;;;;;;;;;
2021/01/18 00:57:13;;;;;;;27.17;15.33;;;5.3;99.9;;;;;;;;;
2021/01/18 00:57:29;;;;;;;27.17;15.33;;;5.3;99.9;;;;;;;;;
2021/01/18 00:57:39;;;;;;;27.17;15.33;;;5.3;99.9;;;;;;;;;
2021/01/18 00:57:54;;;;;;;26.27;16.7;;;5.3;99.9;;;;;;;;;
2021/01/18 00:58:02;;;;;;;26.27;16.7;;;5.3;99.9;;;;;;;;;
2021/01/18 00:58:05;;;;;;;26.27;16.7;;;5.3;99.9;;;;;;;;;
2021/01/18 00:58:15;;;;;;;26.27;16.7;;;5.3;99.9;;;;;;;;;
2021/01/18 00:58:30;;;;;;;26.27;16.7;;;5.3;99.9;;;;;;;;;
2021/01/18 00:58:40;;;;;;;26.27;16.7;;;5.3;99.9;;;;;;;;;
2021/01/18 00:58:56;;;;;;;28.7;16.27;;;5.3;99.9;;;;;;;;;
2021/01/18 00:59:01;;;;;;;28.7;16.27;;;5.3;99.9;;;;;;;;;
2021/01/18 00:59:06;;;;;;;28.7;16.27;;;5.3;99.9;;;;;;;;;
2021/01/18 00:59:16;;;;;;;28.7;16.27;;;5.3;99.9;;;;;;;;;
2021/01/18 00:59:27;;;;;;;28.7;16.27;;;5.3;99.9;;;;;;;;;
2021/01/18 00:59:42;;;;;;;28.7;16.27;;;5.3;99.9;;;;;;;;;
2021/01/18 00:59:52;;;;;;;27.4;16.33;;;5.3;99.9;;;;;;;;;
2021/01/18 01:00:02;;;;;;;27.4;16.33;;;5.3;99.9;;;;;;;;;
2021/01/18 01:00:07;;;;;;;27.4;16.33;;;5.3;99.9;;;;;;;;;
2021/01/18 01:00:13;;;;;;;27.4;16.33;;;5.3;99.9;;;;;;;;;
2021/01/18 01:00:28;;;;;;;27.4;16.33;;;5.3;99.9;;;;;;;;;
2021/01/18 01:00:43;;;;;;;26.63;16.77;;;5.4;99.9;;;;;;;;;
2021/01/18 01:00:54;;;;;;;26.63;16.77;;;5.4;99.9;;;;;;;;;
2021/01/18 01:01:01;;;;;;;26.63;16.77;;;5.4;99.9;;;;;;;;;
2021/01/18 01:01:09;;;;;;;26.63;16.77;;;5.4;99.9;;;;;;;;;
2021/01/18 01:01:14;;;;;;;26.63;16.77;;;5.4;99.9;;;;;;;;;
2021/01/18 01:01:29;;;;;;;26.63;16.77;;;5.4;99.9;;;;;;;;;
2021/01/18 01:01:40;;;;;;;26.63;16.77;;;5.4;99.9;;;;;;;;;
2021/01/18 01:01:55;;;;;;;28.7;16;;;5.4;99.9;;;;;;;;;
2021/01/18 01:02:02;;;;;;;28.7;16;;;5.4;99.9;;;;;;;;;
2021/01/18 01:02:05;;;;;;;28.7;16;;;5.4;99.9;;;;;;;;;
2021/01/18 01:02:15;;;;;;;28.7;16;;;5.4;99.9;;;;;;;;;
2021/01/18 01:02:26;;;;;;;28.7;16;;;5.4;99.9;;;;;;;;;
2021/01/18 01:02:41;;;;;;;28.7;16;;;5.4;99.9;;;;;;;;;
2021/01/18 01:02:56;;;;;;;26.5;16.87;;;5.4;99.9;;;;;;;;;
2021/01/18 01:03:02;;;;;;;26.5;16.87;;;5.4;99.9;;;;;;;;;
2021/01/18 01:03:07;;;;;;;26.5;16.87;;;5.4;99.9;;;;;;;;;
2021/01/18 01:03:12;;;;;;;26.5;16.87;;;5.4;99.9;;;;;;;;;
2021/01/18 01:03:27;;;;;;;26.5;16.87;;;5.4;99.9;;;;;;;;;
2021/01/18 01:03:43;;;;;;;26.5;16.87;;;5.4;99.9;;;;;;;;;
2021/01/18 01:03:53;;;;;;;28.23;15.8;;;5.4;99.9;;;;;;;;;
2021/01/18 01:04:02;;;;;;;28.23;15.8;;;5.4;99.9;;;;;;;;;
2021/01/18 01:04:08;;;;;;;28.23;15.8;;;5.4;99.9;;;;;;;;;
2021/01/18 01:04:13;;;;;;;28.23;15.8;;;5.4;99.9;;;;;;;;;
2021/01/18 01:04:29;;;;;;;28.23;15.8;;;5.4;99.9;;;;;;;;;
2021/01/18 01:04:41;;;;;;;28.23;15.8;;;5.4;99.9;;;;;;;;;
2021/01/18 01:04:54;;;;;;;25;15.07;;;5.4;99.9;;;;;;;;;
2021/01/18 01:05:02;;;;;;;25;15.07;;;5.4;99.9;;;;;;;;;
2021/01/18 01:05:10;;;;;;;25;15.07;;;5.4;99.9;;;;;;;;;
2021/01/18 01:05:15;;;;;;;25;15.07;;;5.4;99.9;;;;;;;;;
2021/01/18 01:05:25;;;;;;;25;15.07;;;5.4;99.9;;;;;;;;;
2021/01/18 01:05:40;;;;;;;25;15.07;;;5.4;99.9;;;;;;;;;
2021/01/18 01:05:56;;;;;;;26.63;15.63;;;5.3;99.9;;;;;;;;;
2021/01/18 01:06:01;;;;;;;26.63;15.63;;;5.3;99.9;;;;;;;;;
2021/01/18 01:06:06;;;;;;;26.63;15.63;;;5.3;99.9;;;;;;;;;
2021/01/18 01:06:16;;;;;;;26.63;15.63;;;5.3;99.9;;;;;;;;;
2021/01/18 01:06:26;;;;;;;26.63;15.63;;;5.3;99.9;;;;;;;;;
2021/01/18 01:06:42;;;;;;;26.63;15.63;;;5.3;99.9;;;;;;;;;
2021/01/18 01:06:52;;;;;;;30.03;16.27;;;5.3;99.9;;;;;;;;;
2021/01/18 01:07:02;;;;;;;30.03;16.27;;;5.3;99.9;;;;;;;;;
2021/01/18 01:07:07;;;;;;;30.03;16.27;;;5.3;99.9;;;;;;;;;
2021/01/18 01:07:17;;;;;;;30.03;16.27;;;5.3;99.9;;;;;;;;;
2021/01/18 01:07:28;;;;;;;30.03;16.27;;;5.3;99.9;;;;;;;;;
2021/01/18 01:07:38;;;;;;;30.03;16.27;;;5.3;99.9;;;;;;;;;
2021/01/18 01:07:53;;;;;;;27.1;16.13;;;5.3;99.9;;;;;;;;;
2021/01/18 01:08:02;;;;;;;27.1;16.13;;;5.3;99.9;;;;;;;;;
2021/01/18 01:08:09;;;;;;;27.1;16.13;;;5.3;99.9;;;;;;;;;
2021/01/18 01:08:14;;;;;;;27.1;16.13;;;5.3;99.9;;;;;;;;;
2021/01/18 01:08:29;;;;;;;27.1;16.13;;;5.3;99.9;;;;;;;;;
2021/01/18 01:08:45;;;;;;;27.1;16.13;;;5.3;99.9;;;;;;;;;
2021/01/18 01:08:55;;;;;;;23.3;14.47;;;5.3;99.9;;;;;;;;;
2021/01/18 01:09:02;;;;;;;23.3;14.47;;;5.3;99.9;;;;;;;;;
2021/01/18 01:09:05;;;;;;;23.3;14.47;;;5.3;99.9;;;;;;;;;
2021/01/18 01:09:15;;;;;;;23.3;14.47;;;5.3;99.9;;;;;;;;;
2021/01/18 01:09:31;;;;;;;23.3;14.47;;;5.3;99.9;;;;;;;;;
2021/01/18 01:09:41;;;;;;;23.3;14.47;;;5.3;99.9;;;;;;;;;
2021/01/18 01:09:51;;;;;;;27.17;15.47;;;5.3;99.9;;;;;;;;;
2021/01/18 01:10:02;;;;;;;27.17;15.47;;;5.3;99.9;;;;;;;;;
2021/01/18 01:10:06;;;;;;;27.17;15.47;;;5.3;99.9;;;;;;;;;
2021/01/18 01:10:17;;;;;;;27.17;15.47;;;5.3;99.9;;;;;;;;;
2021/01/18 01:10:27;;;;;;;27.17;15.47;;;5.3;99.9;;;;;;;;;
2021/01/18 01:10:42;;;;;;;27.17;15.47;;;5.3;99.9;;;;;;;;;
2021/01/18 01:10:58;;;;;;;32.37;15.47;;;5.3;99.9;;;;;;;;;
2021/01/18 01:11:01;;;;;;;32.37;15.47;;;5.3;99.9;;;;;;;;;
2021/01/18 01:11:08;;;;;;;32.37;15.47;;;5.3;99.9;;;;;;;;;
2021/01/18 01:11:13;;;;;;;32.37;15.47;;;5.3;99.9;;;;;;;;;
2021/01/18 01:11:28;;;;;;;32.37;15.47;;;5.3;99.9;;;;;;;;;
2021/01/18 01:11:44;;;;;;;32.37;15.47;;;5.3;99.9;;;;;;;;;
2021/01/18 01:11:54;;;;;;;27.17;15.63;;;5.4;99.9;;;;;;;;;
2021/01/18 01:12:02;;;;;;;27.17;15.63;;;5.4;99.9;;;;;;;;;
2021/01/18 01:12:04;;;;;;;27.17;15.63;;;5.4;99.9;;;;;;;;;
2021/01/18 01:12:15;;;;;;;27.17;15.63;;;5.4;99.9;;;;;;;;;
2021/01/18 01:12:30;;;;;;;27.17;15.63;;;5.4;99.9;;;;;;;;;
2021/01/18 01:12:40;;;;;;;27.17;15.63;;;5.4;99.9;;;;;;;;;
2021/01/18 01:12:55;;;;;;;22.3;16.27;;;5.3;99.9;;;;;;;;;
2021/01/18 01:13:02;;;;;;;22.3;16.27;;;5.3;99.9;;;;;;;;;
2021/01/18 01:13:11;;;;;;;22.3;16.27;;;5.3;99.9;;;;;;;;;
2021/01/18 01:13:16;;;;;;;22.3;16.27;;;5.3;99.9;;;;;;;;;
2021/01/18 01:13:26;;;;;;;22.3;16.27;;;5.3;99.9;;;;;;;;;
2021/01/18 01:13:42;;;;;;;22.3;16.27;;;5.3;99.9;;;;;;;;;
2021/01/18 01:13:57;;;;;;;28.23;16;;;5.3;99.9;;;;;;;;;
2021/01/18 01:14:02;;;;;;;28.23;16;;;5.3;99.9;;;;;;;;;
2021/01/18 01:14:07;;;;;;;28.23;16;;;5.3;99.9;;;;;;;;;
2021/01/18 01:14:12;;;;;;;28.23;16;;;5.3;99.9;;;;;;;;;
2021/01/18 01:14:28;;;;;;;28.23;16;;;5.3;99.9;;;;;;;;;